Time;durP1;ratioP1;P1;durP2;ratioP2;P2;SDS_P1;SDS_P2;PMS_P1;PMS_P2;Temp;Humidity;BMP_temperature;BMP_pressure;BME280_temperature;BME280_humidity;BME280_pressure;Samples;Min_cycle;Max_cycle;Signal;HPM_P1;HPM_P2
2021/06/29 00:00:06;;;;;;;8.80;7.90;;;;;;;18.55;62.20;99926.81;4930704;28;106221;-69
2021/06/29 00:02:32;;;;;;;9.90;7.75;;;;;;;18.50;62.60;99926.69;4930547;28;106207;-70
2021/06/29 00:04:57;;;;;;;11.15;8.23;;;;;;;18.45;62.91;99918.44;4930067;28;105810;-71
2021/06/29 00:07:22;;;;;;;10.95;7.85;;;;;;;18.40;62.66;99912.94;4929991;28;105803;-71
2021/06/29 00:09:47;;;;;;;10.10;8.07;;;;;;;18.35;62.56;99920.88;4930343;28;105751;-71
2021/06/29 00:12:13;;;;;;;11.70;7.70;;;;;;;18.29;62.77;99921.78;4930448;28;105785;-69
2021/06/29 00:14:40;;;;;;;10.20;7.90;;;;;;;18.24;63.01;99920.59;4930192;28;106377;-68
2021/06/29 00:17:08;;;;;;;9.18;7.18;;;;;;;18.21;62.91;99909.47;4929873;28;106033;-71
2021/06/29 00:19:33;;;;;;;10.57;7.95;;;;;;;18.16;63.08;99923.59;4931121;28;106096;-67
2021/06/29 00:21:59;;;;;;;9.68;7.38;;;;;;;18.12;63.12;99922.41;4930489;28;106291;-67
2021/06/29 00:24:24;;;;;;;10.68;7.82;;;;;;;18.05;63.30;99919.78;4930152;28;105930;-72
2021/06/29 00:26:50;;;;;;;10.38;7.68;;;;;;;18.01;63.32;99910.50;4929889;28;106903;-80
2021/06/29 00:29:15;;;;;;;11.52;7.43;;;;;;;17.98;63.49;99899.38;4930942;28;105921;-69
2021/06/29 00:31:40;;;;;;;8.48;7.20;;;;;;;17.92;63.51;99901.13;4930195;28;106234;-71
2021/06/29 00:34:06;;;;;;;9.23;7.88;;;;;;;17.86;63.79;99897.41;4929243;28;122106;-70
2021/06/29 00:36:32;;;;;;;8.73;7.65;;;;;;;17.82;63.84;99896.19;4929801;28;106272;-76
2021/06/29 00:38:57;;;;;;;8.95;7.53;;;;;;;17.78;63.97;99900.38;4930741;28;105974;-70
2021/06/29 00:41:23;;;;;;;9.57;7.50;;;;;;;17.74;64.15;99899.19;4929804;28;106133;-74
2021/06/29 00:43:50;;;;;;;9.40;7.32;;;;;;;17.71;64.18;99899.66;4929452;28;106417;-68
2021/06/29 00:46:17;;;;;;;8.93;7.38;;;;;;;17.67;64.28;99904.66;4928982;28;106855;-67
2021/06/29 00:48:51;;;;;;;9.13;7.63;;;;;;;17.50;64.36;99877.50;4929991;28;105825;-62
2021/06/29 00:51:20;;;;;;;12.00;7.65;;;;;;;17.61;64.57;99888.59;4929709;28;105945;-68
2021/06/29 00:53:49;;;;;;;10.20;7.60;;;;;;;17.57;64.59;99882.81;4929063;28;106304;-64
2021/06/29 00:56:15;;;;;;;10.48;7.63;;;;;;;17.53;64.45;99882.44;4929117;28;106112;-68
2021/06/29 00:58:42;;;;;;;9.13;7.65;;;;;;;17.49;64.75;99880.41;4929779;28;105832;-70
2021/06/29 01:01:07;;;;;;;9.18;7.25;;;;;;;17.46;64.76;99881.69;4929770;28;106227;-69
2021/06/29 01:03:33;;;;;;;9.20;7.57;;;;;;;17.42;65.03;99875.09;4929190;28;105929;-73
2021/06/29 01:05:58;;;;;;;9.70;7.85;;;;;;;17.37;65.14;99872.25;4929167;28;106004;-68
2021/06/29 01:08:24;;;;;;;12.55;8.05;;;;;;;17.32;65.26;99869.41;4930128;28;106505;-69
2021/06/29 01:10:49;;;;;;;10.77;7.90;;;;;;;17.27;65.13;99877.34;4929207;28;106225;-69
2021/06/29 01:13:47;;;;;;;10.90;8.52;;;;;;;17.22;65.56;99873.44;4928899;28;106265;-69
2021/06/29 01:16:13;;;;;;;11.52;7.43;;;;;;;17.18;65.41;99880.31;4928624;28;105978;-73
2021/06/29 01:18:40;;;;;;;9.40;7.82;;;;;;;17.12;65.66;99877.69;4930874;28;106817;-64
2021/06/29 01:21:11;;;;;;;11.10;9.15;;;;;;;17.07;65.77;99872.94;4932658;28;106190;-73
2021/06/29 01:23:37;;;;;;;12.50;8.60;;;;;;;17.05;66.01;99864.28;4932276;28;105911;-77
2021/06/29 01:26:04;;;;;;;10.27;7.82;;;;;;;17.01;66.16;99863.06;4932170;28;106034;-72
2021/06/29 01:28:33;;;;;;;9.57;8.52;;;;;;;16.96;66.23;99861.03;4933372;28;105855;-70
2021/06/29 01:33:24;;;;;;;12.32;8.38;;;;;;;16.89;66.37;99855.72;4932012;28;106489;-71
2021/06/29 01:35:49;;;;;;;13.35;9.13;;;;;;;16.87;66.47;99860.47;4931742;28;106024;-72
2021/06/29 01:38:19;;;;;;;11.13;8.55;;;;;;;16.84;66.40;99852.84;4932934;28;106480;-70
2021/06/29 01:40:45;;;;;;;10.88;8.98;;;;;;;16.82;66.91;99852.22;4932070;28;106151;-70
2021/06/29 01:43:11;;;;;;;18.40;9.57;;;;;;;16.81;66.91;99852.44;4932301;28;106375;-70
2021/06/29 01:45:36;;;;;;;10.90;8.68;;;;;;;16.79;67.00;99855.34;4932198;28;105931;-72
2021/06/29 01:48:04;;;;;;;10.90;8.73;;;;;;;16.78;67.06;99852.88;4933060;28;106039;-70
2021/06/29 01:50:29;;;;;;;13.45;9.10;;;;;;;16.75;67.04;99854.97;4932253;28;106160;-71
2021/06/29 01:52:57;;;;;;;14.75;8.70;;;;;;;16.73;67.18;99851.69;4931580;28;105986;-72
2021/06/29 01:55:23;;;;;;;11.60;8.75;;;;;;;16.72;67.22;99849.22;4931824;28;106052;-71
2021/06/29 01:57:50;;;;;;;16.67;9.07;;;;;;;16.69;67.39;99852.31;4932577;28;105758;-70
2021/06/29 02:00:16;;;;;;;12.75;9.38;;;;;;;16.69;67.43;99852.31;4931989;28;106127;-71
2021/06/29 02:02:42;;;;;;;13.88;9.43;;;;;;;16.66;67.53;99848.22;4931792;28;106673;-65
2021/06/29 02:05:08;;;;;;;11.18;8.43;;;;;;;16.65;67.55;99853.81;4931933;28;106500;-69
2021/06/29 02:07:33;;;;;;;13.25;9.05;;;;;;;16.63;67.95;99850.53;4932435;28;106173;-65
2021/06/29 02:09:58;;;;;;;15.27;9.30;;;;;;;16.62;67.65;99848.88;4932002;28;105982;-67
2021/06/29 02:12:24;;;;;;;12.52;9.75;;;;;;;16.62;68.07;99846.19;4930007;28;107585;-75
2021/06/29 02:14:49;;;;;;;12.15;10.10;;;;;;;16.61;67.90;99852.59;4931700;28;105827;-72
2021/06/29 02:17:15;;;;;;;13.80;9.85;;;;;;;16.57;68.13;99853.03;4932098;28;105875;-72
2021/06/29 02:19:40;;;;;;;11.00;9.75;;;;;;;16.56;68.15;99856.75;4931783;28;106304;-72
2021/06/29 02:22:08;;;;;;;13.50;9.75;;;;;;;16.57;68.20;99857.59;4931179;28;106225;-75
2021/06/29 02:24:34;;;;;;;11.15;9.68;;;;;;;16.55;68.06;99848.91;4930932;28;106095;-72
2021/06/29 02:27:00;;;;;;;11.57;9.70;;;;;;;16.54;68.25;99848.09;4932125;28;106347;-67
2021/06/29 02:29:25;;;;;;;13.82;9.32;;;;;;;16.51;68.43;99853.94;4929935;28;106355;-67
2021/06/29 02:31:51;;;;;;;11.70;10.13;;;;;;;16.51;68.24;99853.09;4930359;28;116205;-71
2021/06/29 02:34:16;;;;;;;11.23;10.00;;;;;;;16.51;68.35;99856.63;4930696;28;107959;-71
2021/06/29 02:36:42;;;;;;;16.92;10.05;;;;;;;16.50;68.50;99857.66;4931397;28;106031;-70
2021/06/29 02:39:07;;;;;;;11.82;10.18;;;;;;;16.50;68.61;99852.25;4930482;28;108086;-68
2021/06/29 02:41:32;;;;;;;14.02;10.63;;;;;;;16.49;68.60;99850.63;4931128;28;106085;-64
2021/06/29 02:43:58;;;;;;;10.70;9.38;;;;;;;16.47;68.36;99847.34;4929911;28;106063;-65
2021/06/29 02:46:23;;;;;;;12.70;10.15;;;;;;;16.46;68.66;99853.75;4930584;28;105937;-63
2021/06/29 02:48:49;;;;;;;11.48;9.68;;;;;;;16.46;68.86;99845.69;4931025;28;106281;-62
2021/06/29 02:51:15;;;;;;;15.02;10.88;;;;;;;16.46;68.97;99850.22;4930600;28;106552;-67
2021/06/29 02:53:40;;;;;;;14.07;10.38;;;;;;;16.44;69.04;99847.75;4930653;28;105784;-71
2021/06/29 02:56:05;;;;;;;12.95;10.68;;;;;;;16.45;69.01;99845.91;4931358;28;105997;-70
2021/06/29 02:58:31;;;;;;;15.45;10.43;;;;;;;16.46;69.02;99842.16;4930830;28;106120;-72
2021/06/29 03:00:56;;;;;;;13.50;10.07;;;;;;;16.45;69.24;99846.72;4930347;28;105901;-69
2021/06/29 03:03:21;;;;;;;14.45;10.57;;;;;;;16.47;68.89;99847.34;4930403;28;105942;-69
2021/06/29 03:05:47;;;;;;;11.70;10.27;;;;;;;16.48;69.27;99851.66;4931005;28;106115;-67
2021/06/29 03:08:12;;;;;;;11.48;10.27;;;;;;;16.49;68.96;99850.63;4930299;28;106186;-72
2021/06/29 03:10:37;;;;;;;13.02;10.75;;;;;;;16.52;69.15;99847.47;4930316;28;105989;-66
2021/06/29 03:13:03;;;;;;;12.15;10.73;;;;;;;16.54;69.28;99850.78;4930023;28;106229;-62
2021/06/29 03:15:28;;;;;;;24.98;13.57;;;;;;;16.57;69.24;99853.03;4931047;28;105780;-66
2021/06/29 03:17:54;;;;;;;16.73;11.50;;;;;;;16.61;69.21;99852.59;4930483;28;106101;-65
2021/06/29 03:20:19;;;;;;;16.95;11.30;;;;;;;16.64;69.21;99852.19;4930224;28;106739;-67
2021/06/29 03:22:46;;;;;;;12.00;10.38;;;;;;;16.65;69.16;99849.28;4930348;28;105982;-69
2021/06/29 03:25:11;;;;;;;13.82;11.85;;;;;;;16.70;69.01;99848.59;4931111;28;105913;-67
2021/06/29 03:27:37;;;;;;;18.42;11.82;;;;;;;16.74;69.21;99839.03;4929057;28;105976;-67
2021/06/29 03:30:05;;;;;;;16.92;12.73;;;;;;;16.76;69.20;99842.34;4930107;28;106345;-66
2021/06/29 03:32:30;;;;;;;15.13;10.88;;;;;;;16.83;69.03;99845.00;4928993;28;106361;-67
2021/06/29 03:34:55;;;;;;;13.38;11.70;;;;;;;16.79;69.20;99839.22;4931022;28;105677;-65
2021/06/29 03:37:21;;;;;;;14.68;10.70;;;;;;;16.90;68.97;99841.22;4930559;28;106218;-70
2021/06/29 03:39:46;;;;;;;16.77;12.77;;;;;;;16.96;69.15;99842.19;4930155;28;105779;-63
2021/06/29 03:42:12;;;;;;;13.65;11.38;;;;;;;16.99;68.95;99840.94;4928264;28;108604;-63
2021/06/29 03:44:37;;;;;;;14.00;11.00;;;;;;;17.02;69.05;99838.63;4930516;28;106532;-68
2021/06/29 03:47:03;;;;;;;28.73;13.02;;;;;;;17.06;69.14;99844.41;4930024;28;109504;-71
2021/06/29 03:49:28;;;;;;;17.52;11.80;;;;;;;17.10;68.80;99834.84;4929995;28;105960;-67
2021/06/29 03:51:53;;;;;;;15.02;11.90;;;;;;;17.15;68.97;99837.66;4929972;28;106249;-71
2021/06/29 03:54:19;;;;;;;13.85;11.40;;;;;;;17.18;68.91;99842.63;4930698;28;105846;-70
2021/06/29 03:56:45;;;;;;;14.95;11.82;;;;;;;17.23;69.03;99839.25;4930337;28;106008;-65
2021/06/29 03:59:10;;;;;;;14.50;11.30;;;;;;;17.29;68.82;99846.47;4929819;28;106040;-73
2021/06/29 04:01:38;;;;;;;12.93;11.63;;;;;;;17.34;68.71;99845.78;4929821;28;106287;-67
2021/06/29 04:04:04;;;;;;;14.85;12.60;;;;;;;17.39;68.49;99840.56;4930553;28;105904;-72
2021/06/29 04:06:32;;;;;;;14.43;12.10;;;;;;;17.43;68.48;99847.94;4929787;28;106242;-66
2021/06/29 04:08:58;;;;;;;16.52;11.98;;;;;;;17.49;68.65;99845.41;4929493;28;105957;-66
2021/06/29 04:11:25;;;;;;;14.70;12.27;;;;;;;17.54;68.48;99854.47;4929669;28;106600;-67
2021/06/29 04:13:52;;;;;;;19.75;12.63;;;;;;;17.62;68.46;99857.91;4930270;28;105876;-62
2021/06/29 04:16:18;;;;;;;15.45;12.15;;;;;;;17.66;68.35;99861.78;4928998;28;106129;-65
2021/06/29 04:18:43;;;;;;;15.25;13.27;;;;;;;17.71;68.11;99861.94;4929228;28;106185;-63
2021/06/29 04:21:09;;;;;;;22.67;12.80;;;;;;;17.77;68.11;99863.75;4929008;28;105950;-63
2021/06/29 04:23:35;;;;;;;16.23;12.02;;;;;;;17.79;68.00;99875.09;4930199;28;106156;-61
2021/06/29 04:26:02;;;;;;;16.45;12.18;;;;;;;17.87;68.12;99871.28;4929469;28;106238;-71
2021/06/29 04:28:28;;;;;;;13.60;12.13;;;;;;;17.97;68.21;99865.41;4929055;28;106251;-74
2021/06/29 04:30:53;;;;;;;17.23;13.02;;;;;;;18.07;68.15;99865.66;4929116;28;106140;-71
2021/06/29 04:33:19;;;;;;;17.38;12.15;;;;;;;18.15;68.08;99862.69;4929619;28;106098;-70
2021/06/29 04:35:45;;;;;;;14.63;12.23;;;;;;;18.26;67.75;99869.13;4929462;28;106127;-70
2021/06/29 04:38:13;;;;;;;15.38;13.77;;;;;;;18.38;67.72;99858.41;4927837;28;106151;-72
2021/06/29 04:40:38;;;;;;;14.48;12.88;;;;;;;18.47;67.51;99853.53;4929319;28;106398;-73
2021/06/29 04:43:04;;;;;;;17.17;13.60;;;;;;;18.54;67.17;99855.03;4929788;28;106066;-74
2021/06/29 04:45:29;;;;;;;16.88;12.80;;;;;;;18.63;67.13;99855.56;4929356;28;106258;-72
2021/06/29 04:47:56;;;;;;;17.40;13.50;;;;;;;18.71;67.15;99865.16;4929008;28;106184;-72
2021/06/29 04:50:23;;;;;;;19.48;13.27;;;;;;;18.81;66.81;99867.28;4929184;28;106094;-73
2021/06/29 04:52:49;;;;;;;16.95;14.02;;;;;;;18.89;66.63;99865.13;4927996;28;106397;-73
2021/06/29 04:55:14;;;;;;;18.15;13.80;;;;;;;18.99;66.58;99859.13;4937342;28;106272;-72
2021/06/29 04:57:40;;;;;;;20.45;13.38;;;;;;;19.08;66.38;99865.84;4934082;28;106098;-71
2021/06/29 05:00:09;;;;;;;15.63;13.25;;;;;;;19.22;66.35;99865.59;4916313;28;106079;-72
2021/06/29 05:02:35;;;;;;;20.15;13.65;;;;;;;19.31;65.78;99860.66;4931748;28;105974;-77
2021/06/29 05:05:01;;;;;;;15.45;13.13;;;;;;;19.39;65.66;99860.28;4932152;28;106162;-72
2021/06/29 05:07:27;;;;;;;15.50;13.52;;;;;;;19.50;65.75;99854.03;4932070;28;105823;-71
2021/06/29 05:09:52;;;;;;;16.60;13.82;;;;;;;19.67;65.61;99848.75;4932302;28;106074;-72
2021/06/29 05:12:17;;;;;;;21.15;14.07;;;;;;;19.85;65.52;99863.19;4932374;28;105894;-71
2021/06/29 05:14:43;;;;;;;18.30;13.70;;;;;;;20.01;65.29;99856.19;4930669;28;105876;-71
2021/06/29 05:17:08;;;;;;;15.55;13.38;;;;;;;20.19;65.03;99850.59;4931694;28;105830;-73
2021/06/29 05:19:34;;;;;;;15.23;13.63;;;;;;;20.33;64.57;99855.72;4932130;28;105815;-73
2021/06/29 05:21:59;;;;;;;21.50;14.50;;;;;;;20.43;64.13;99855.88;4932633;28;106220;-73
2021/06/29 05:24:25;;;;;;;15.90;13.93;;;;;;;20.57;64.19;99848.25;4932280;28;106148;-74
2021/06/29 05:26:50;;;;;;;18.27;14.10;;;;;;;20.73;63.92;99842.06;4931554;28;106609;-76
2021/06/29 05:29:16;;;;;;;18.42;13.88;;;;;;;20.89;63.42;99834.19;4931431;28;105874;-76
2021/06/29 05:31:42;;;;;;;16.90;14.88;;;;;;;20.97;63.02;99833.78;4931959;28;105866;-76
2021/06/29 05:34:07;;;;;;;18.83;14.40;;;;;;;21.16;63.08;99830.78;4931782;28;105912;-76
2021/06/29 05:36:34;;;;;;;17.90;15.05;;;;;;;21.30;62.60;99832.88;4930820;28;106268;-75
2021/06/29 05:38:59;;;;;;;19.23;15.90;;;;;;;21.40;62.31;99820.56;4931530;28;105971;-76
2021/06/29 05:41:25;;;;;;;18.75;14.63;;;;;;;21.48;61.90;99820.13;4931825;28;105757;-70
2021/06/29 05:43:50;;;;;;;21.00;14.38;;;;;;;21.64;62.13;99821.97;4930149;28;113998;-70
2021/06/29 05:46:15;;;;;;;19.17;14.15;;;;;;;21.79;61.83;99815.91;4931291;28;105709;-69
2021/06/29 05:48:41;;;;;;;17.38;13.65;;;;;;;22.02;61.70;99824.00;4931567;28;105808;-70
2021/06/29 05:51:06;;;;;;;15.75;13.00;;;;;;;22.24;61.50;99821.25;4931754;28;107042;-76
2021/06/29 05:53:31;;;;;;;18.20;14.00;;;;;;;22.46;61.12;99813.91;4930650;28;106499;-75
2021/06/29 05:55:58;;;;;;;22.08;14.57;;;;;;;22.68;60.72;99815.69;4931019;28;106263;-75
2021/06/29 05:58:24;;;;;;;15.73;12.80;;;;;;;22.90;60.41;99810.16;4931295;28;106066;-75
2021/06/29 06:00:50;;;;;;;16.67;12.70;;;;;;;23.13;60.08;99816.31;4932065;28;106822;-72
2021/06/29 06:03:16;;;;;;;14.88;12.75;;;;;;;23.31;59.62;99812.31;4931400;28;106681;-73
2021/06/29 06:05:42;;;;;;;13.65;12.25;;;;;;;23.49;58.84;99816.47;4930596;28;106603;-70
2021/06/29 06:08:08;;;;;;;16.77;13.23;;;;;;;23.65;58.52;99817.38;4931102;28;106433;-68
2021/06/29 06:10:34;;;;;;;17.90;13.63;;;;;;;23.71;58.15;99821.72;4931987;28;106035;-72
2021/06/29 06:12:59;;;;;;;13.43;12.02;;;;;;;23.87;58.00;99822.59;4930827;28;106121;-70
2021/06/29 06:15:24;;;;;;;16.13;12.48;;;;;;;23.99;57.60;99836.81;4931123;28;107078;-73
2021/06/29 06:17:50;;;;;;;13.65;11.73;;;;;;;24.16;57.21;99838.47;4930763;28;105733;-73
2021/06/29 06:20:17;;;;;;;18.38;12.20;;;;;;;24.36;56.76;99823.25;4931057;28;106166;-73
2021/06/29 06:22:43;;;;;;;17.42;12.15;;;;;;;24.52;56.29;99824.09;4930509;28;106264;-75
2021/06/29 06:25:08;;;;;;;16.88;13.63;;;;;;;24.60;55.53;99818.09;4930927;28;106025;-71
2021/06/29 06:27:34;;;;;;;14.48;11.27;;;;;;;24.71;55.51;99817.03;4931074;28;106151;-73
2021/06/29 06:29:59;;;;;;;15.15;11.48;;;;;;;24.84;54.99;99816.47;4930893;28;106070;-73
2021/06/29 06:32:24;;;;;;;17.55;11.75;;;;;;;25.03;54.66;99820.53;4930486;28;106250;-75
2021/06/29 06:34:49;;;;;;;15.82;12.07;;;;;;;25.22;54.04;99824.31;4930348;28;118606;-70
2021/06/29 06:37:15;;;;;;;14.32;11.00;;;;;;;25.27;53.04;99827.00;4930475;28;113962;-71
2021/06/29 06:39:40;;;;;;;14.05;10.80;;;;;;;25.25;52.63;99836.56;4931490;28;106388;-72
2021/06/29 06:42:06;;;;;;;18.10;11.40;;;;;;;25.37;52.65;99841.72;4931306;28;106043;-71
2021/06/29 06:44:31;;;;;;;14.75;11.48;;;;;;;25.51;51.99;99848.22;4929392;28;106002;-73
2021/06/29 06:46:57;;;;;;;13.07;11.77;;;;;;;25.58;51.20;99846.03;4930026;28;121694;-70
2021/06/29 06:49:22;;;;;;;18.00;12.05;;;;;;;25.74;50.99;99854.97;4931605;28;105912;-73
2021/06/29 06:51:48;;;;;;;17.92;11.50;;;;;;;25.92;50.58;99867.16;4930609;28;106362;-73
2021/06/29 06:54:13;;;;;;;14.35;11.55;;;;;;;25.94;49.87;99869.59;4930400;28;107142;-73
2021/06/29 06:56:38;;;;;;;15.77;11.98;;;;;;;26.06;49.42;99859.19;4928537;28;106434;-68
2021/06/29 06:59:04;;;;;;;17.73;11.77;;;;;;;26.24;48.96;99863.16;4930102;28;105868;-67
2021/06/29 07:01:29;;;;;;;16.88;12.50;;;;;;;26.35;48.71;99853.00;4930268;28;106200;-67
2021/06/29 07:03:54;;;;;;;14.45;12.32;;;;;;;26.44;48.41;99861.41;4930472;28;105975;-69
2021/06/29 07:06:20;;;;;;;14.05;11.18;;;;;;;26.46;48.31;99859.19;4929727;28;118469;-69
2021/06/29 07:08:45;;;;;;;16.25;12.70;;;;;;;26.44;48.00;99854.03;4931070;28;105798;-68
2021/06/29 07:11:11;;;;;;;13.18;10.98;;;;;;;26.43;48.20;99854.31;4930638;28;106150;-68
2021/06/29 07:13:37;;;;;;;15.48;13.32;;;;;;;26.59;47.86;99846.81;4930046;28;105872;-70
2021/06/29 07:16:03;;;;;;;16.77;13.32;;;;;;;26.76;47.70;99847.22;4928992;28;105936;-69
2021/06/29 07:18:29;;;;;;;14.77;12.98;;;;;;;26.96;47.29;99848.97;4930576;28;105979;-69
2021/06/29 07:20:54;;;;;;;14.60;12.98;;;;;;;27.25;47.31;99839.13;4930021;28;106113;-67
2021/06/29 07:23:20;;;;;;;16.13;12.02;;;;;;;27.42;45.97;99828.56;4929761;28;106109;-68
2021/06/29 07:25:46;;;;;;;19.85;12.48;;;;;;;27.61;46.25;99841.47;4930150;28;106237;-70
2021/06/29 07:28:13;;;;;;;13.40;11.35;;;;;;;27.89;46.04;99839.72;4930229;28;106138;-70
2021/06/29 07:30:39;;;;;;;14.73;11.57;;;;;;;28.18;45.39;99830.59;4929899;28;106168;-70
2021/06/29 07:33:05;;;;;;;13.85;11.10;;;;;;;28.41;44.63;99822.56;4929442;28;106580;-73
2021/06/29 07:35:31;;;;;;;15.23;11.45;;;;;;;28.57;44.28;99823.13;4929799;28;106076;-68
2021/06/29 07:37:59;;;;;;;15.68;12.82;;;;;;;28.42;43.30;99824.19;4928091;28;106060;-72
2021/06/29 07:40:25;;;;;;;16.10;12.45;;;;;;;28.31;43.97;99820.78;4930056;28;106258;-69
2021/06/29 07:42:51;;;;;;;13.15;11.23;;;;;;;28.37;43.86;99817.69;4929297;28;106807;-68
2021/06/29 07:45:17;;;;;;;15.65;11.02;;;;;;;28.52;43.86;99824.84;4929583;28;106024;-68
2021/06/29 07:47:43;;;;;;;14.85;9.82;;;;;;;28.46;43.81;99820.56;4927679;28;106051;-67
2021/06/29 07:50:10;;;;;;;14.32;11.85;;;;;;;28.35;42.84;99824.56;4928806;28;106385;-65
2021/06/29 07:52:36;;;;;;;17.60;11.43;;;;;;;28.08;43.29;99828.81;4927918;28;106130;-69
2021/06/29 07:55:03;;;;;;;12.75;10.40;;;;;;;28.07;43.14;99818.97;4927848;28;106073;-65
2021/06/29 07:57:29;;;;;;;12.05;10.23;;;;;;;28.18;43.40;99820.44;4928831;28;106463;-71
2021/06/29 07:59:54;;;;;;;11.82;9.88;;;;;;;28.48;43.51;99820.25;4927904;28;106080;-67
2021/06/29 08:02:19;;;;;;;14.45;10.05;;;;;;;28.81;42.54;99812.06;4928584;28;106014;-67
2021/06/29 08:04:46;;;;;;;18.40;11.15;;;;;;;29.15;41.87;99819.91;4927252;28;106685;-72
2021/06/29 08:07:11;;;;;;;10.48;9.35;;;;;;;29.49;41.62;99820.66;4929066;28;106347;-68
2021/06/29 08:09:36;;;;;;;11.70;9.13;;;;;;;29.79;40.70;99818.38;4928543;28;106082;-71
2021/06/29 08:12:02;;;;;;;13.55;8.90;;;;;;;29.71;40.03;99814.41;4927554;28;107033;-67
2021/06/29 08:14:28;;;;;;;12.88;9.85;;;;;;;29.83;39.83;99819.38;4928072;28;106112;-69
2021/06/29 08:16:53;;;;;;;11.20;8.75;;;;;;;29.78;38.96;99814.00;4928879;28;106396;-66
2021/06/29 08:19:19;;;;;;;10.45;7.95;;;;;;;29.90;38.65;99819.81;4928348;28;106030;-60
2021/06/29 08:21:44;;;;;;;12.85;7.70;;;;;;;30.13;38.48;99812.41;4928223;28;106410;-71
2021/06/29 08:24:09;;;;;;;11.68;8.35;;;;;;;30.55;37.98;99806.75;4927803;28;106455;-72
2021/06/29 08:26:35;;;;;;;10.95;7.63;;;;;;;30.78;37.22;99817.72;4928667;28;106130;-67
2021/06/29 08:29:00;;;;;;;15.80;7.82;;;;;;;30.72;36.28;99806.84;4926521;28;106981;-65
2021/06/29 08:31:26;;;;;;;8.63;6.35;;;;;;;30.78;35.73;99802.03;4927700;28;106515;-71
2021/06/29 08:33:54;;;;;;;15.25;7.07;;;;;;;30.78;35.30;99806.72;4927899;28;106173;-71
2021/06/29 08:36:21;;;;;;;8.23;6.45;;;;;;;30.64;34.74;99815.84;4928009;28;106125;-71
2021/06/29 08:38:48;;;;;;;11.10;6.78;;;;;;;30.66;34.03;99816.38;4928000;28;106035;-72
2021/06/29 08:41:14;;;;;;;10.75;6.85;;;;;;;30.44;34.23;99813.59;4927206;28;106101;-71
2021/06/29 08:43:40;;;;;;;14.68;6.65;;;;;;;30.54;34.46;99807.88;4927440;28;106414;-69
2021/06/29 08:46:06;;;;;;;9.60;6.35;;;;;;;30.51;34.16;99814.00;4927426;28;105981;-71
2021/06/29 08:48:32;;;;;;;7.38;6.57;;;;;;;30.31;33.93;99810.59;4927274;28;106310;-69
2021/06/29 08:51:00;;;;;;;10.48;6.68;;;;;;;30.36;34.39;99802.25;4926510;28;106067;-71
2021/06/29 08:53:26;;;;;;;10.45;6.53;;;;;;;30.57;34.31;99798.19;4926982;28;106197;-70
2021/06/29 08:55:52;;;;;;;7.82;6.40;;;;;;;30.50;33.92;99793.16;4928291;28;106050;-70
2021/06/29 08:58:22;;;;;;;10.20;5.82;;;;;;;30.41;33.89;99790.28;4927387;28;106414;-66
2021/06/29 09:00:49;;;;;;;6.65;4.75;;;;;;;30.31;33.58;99796.06;4927026;28;106057;-68
2021/06/29 09:03:15;;;;;;;10.23;5.05;;;;;;;30.25;32.77;99803.63;4927249;28;106064;-68
2021/06/29 09:05:54;;;;;;;7.38;5.22;;;;;;;30.32;32.95;99790.25;4928468;28;105979;-69
2021/06/29 09:08:22;;;;;;;10.95;5.32;;;;;;;30.44;32.45;99780.63;4922855;28;106488;-73
2021/06/29 09:11:13;;;;;;;8.18;4.70;;;;;;;30.55;31.75;99788.31;4909387;28;107190;-70
2021/06/29 09:13:39;;;;;;;5.57;4.55;;;;;;;30.56;31.90;99772.63;4906687;28;107220;-72
2021/06/29 09:16:05;;;;;;;6.15;4.15;;;;;;;30.52;31.24;99775.22;4906479;28;106476;-71
2021/06/29 09:18:33;;;;;;;6.32;4.68;;;;;;;30.41;31.57;99770.25;4904742;28;106256;-69
2021/06/29 09:21:04;;;;;;;4.85;4.13;;;;;;;30.20;30.82;99773.53;4906222;28;107871;-71
2021/06/29 09:23:39;;;;;;;6.85;4.40;;;;;;;30.11;31.49;99773.44;4906495;28;106345;-71
2021/06/29 09:26:16;;;;;;;11.35;4.95;;;;;;;30.04;31.21;99771.16;4908092;28;106032;-72
2021/06/29 09:28:46;;;;;;;6.63;4.68;;;;;;;29.87;31.05;99769.06;4917795;28;106116;-71
2021/06/29 09:31:12;;;;;;;;;;;;;;;29.76;31.57;99761.34;4928565;28;106795;-72
2021/06/29 09:33:44;;;;;;;9.00;4.55;;;;;;;29.59;31.50;99760.06;4928944;28;106136;-70
2021/06/29 09:36:16;;;;;;;8.85;3.90;;;;;;;29.39;32.04;99755.84;4929977;28;106166;-67
2021/06/29 09:38:44;;;;;;;8.00;4.78;;;;;;;29.26;32.10;99748.44;4928737;28;105753;-65
2021/06/29 09:41:30;;;;;;;10.77;4.97;;;;;;;29.25;32.33;99738.56;4930831;28;106033;-70
2021/06/29 09:44:02;;;;;;;6.13;4.35;;;;;;;29.28;32.59;99738.78;4931911;28;106616;-71
2021/06/29 09:46:28;;;;;;;6.78;4.90;;;;;;;29.45;32.34;99729.09;4932793;28;106018;-70
2021/06/29 09:48:59;;;;;;;6.88;4.45;;;;;;;29.61;32.00;99722.16;4932356;28;106176;-72
2021/06/29 09:51:28;;;;;;;8.35;4.60;;;;;;;29.94;31.74;99710.97;4931545;28;106127;-72
2021/06/29 09:54:09;;;;;;;5.35;4.18;;;;;;;30.05;31.30;99700.56;4930242;28;105970;-68
2021/06/29 09:56:40;;;;;;;4.90;4.20;;;;;;;30.22;31.38;99697.09;4932248;28;106093;-72
2021/06/29 09:59:12;;;;;;;7.40;4.25;;;;;;;30.57;31.50;99697.31;4932377;28;106248;-71
2021/06/29 10:01:37;;;;;;;5.35;4.50;;;;;;;30.86;31.02;99693.22;4930563;28;105801;-69
2021/06/29 10:04:04;;;;;;;10.02;4.80;;;;;;;31.03;30.85;99692.50;4931789;28;105877;-72
2021/06/29 10:06:32;;;;;;;6.28;4.38;;;;;;;31.09;30.67;99682.16;4932455;28;105823;-71
2021/06/29 10:09:10;;;;;;;8.38;4.93;;;;;;;31.03;30.58;99698.00;4931230;28;106239;-72
2021/06/29 10:11:40;;;;;;;6.35;4.60;;;;;;;31.15;30.62;99705.59;4930997;28;107266;-69
2021/06/29 10:14:11;;;;;;;6.30;4.82;;;;;;;31.21;30.64;99698.84;4930975;28;106270;-68
2021/06/29 10:16:39;;;;;;;7.85;4.93;;;;;;;31.11;30.68;99704.63;4931793;28;105900;-72
2021/06/29 10:21:40;;;;;;;10.07;5.32;;;;;;;30.89;31.36;99709.06;4928167;28;105867;-72
2021/06/29 10:24:08;;;;;;;8.57;5.47;;;;;;;30.86;31.37;99709.72;4930947;28;105796;-71
2021/06/29 10:26:37;;;;;;;9.18;5.13;;;;;;;30.78;31.64;99716.78;4932192;28;106081;-73
2021/06/29 10:29:07;;;;;;;8.57;5.10;;;;;;;30.86;31.46;99710.50;4931443;28;105856;-68
2021/06/29 10:31:34;;;;;;;6.05;5.28;;;;;;;30.92;31.42;99707.63;4930914;28;106014;-66
2021/06/29 10:34:02;;;;;;;7.32;5.28;;;;;;;30.95;31.30;99696.81;4930751;28;106109;-72
2021/06/29 10:36:30;;;;;;;7.40;5.00;;;;;;;31.17;31.45;99693.16;4931575;28;105890;-71
2021/06/29 10:38:57;;;;;;;7.70;5.38;;;;;;;31.27;31.00;99686.53;4927018;28;106389;-69
2021/06/29 10:41:32;;;;;;;6.00;4.78;;;;;;;31.36;31.17;99684.59;4929279;28;106121;-70
2021/06/29 10:43:59;;;;;;;9.68;4.95;;;;;;;31.26;31.04;99689.59;4929660;28;106122;-70
2021/06/29 10:46:27;;;;;;;10.18;5.20;;;;;;;31.30;31.13;99683.13;4930285;28;106098;-68
2021/06/29 10:48:52;;;;;;;6.85;4.90;;;;;;;31.13;30.95;99697.69;4929860;28;106226;-68
2021/06/29 10:51:35;;;;;;;6.35;4.90;;;;;;;30.75;31.60;99694.63;4929166;28;106636;-71
2021/06/29 10:54:00;;;;;;;6.88;4.97;;;;;;;30.69;31.86;99699.47;4929424;28;106018;-72
2021/06/29 10:56:53;;;;;;;7.38;4.70;;;;;;;30.76;31.70;99693.53;4930054;28;106142;-67
2021/06/29 10:59:31;;;;;;;7.63;4.80;;;;;;;30.78;31.66;99694.00;4929933;28;106310;-70
2021/06/29 11:01:56;;;;;;;7.72;4.90;;;;;;;30.82;31.44;99683.97;4929130;28;106000;-71
2021/06/29 11:04:47;;;;;;;8.20;4.68;;;;;;;30.91;31.55;99684.00;4928802;28;106405;-68
2021/06/29 11:07:42;;;;;;;7.00;4.63;;;;;;;31.03;30.96;99682.28;4929664;28;106045;-71
2021/06/29 11:10:10;;;;;;;6.78;4.28;;;;;;;31.25;30.92;99683.31;4926667;28;106651;-67
2021/06/29 11:12:42;;;;;;;5.20;3.92;;;;;;;31.52;30.22;99676.69;4928950;28;106224;-73
2021/06/29 11:15:09;;;;;;;4.72;3.70;;;;;;;31.80;29.84;99681.09;4928883;28;106716;-72
2021/06/29 11:17:47;;;;;;;7.35;4.10;;;;;;;32.14;29.19;99665.63;4930415;28;106109;-70